sensor_id;sensor_type;location;lat;lon;timestamp;pressure;altitude;pressure_sealevel;temperature;humidity
61697;BME280;47610;52.252;20.922;2023-09-18T00:00:24;100458.64;;;20.57;100.00
61697;BME280;47610;52.252;20.922;2023-09-18T00:05:28;100455.34;;;20.47;100.00
61697;BME280;47610;52.252;20.922;2023-09-18T00:10:31;100450.61;;;20.40;100.00
61697;BME280;47610;52.252;20.922;2023-09-18T00:15:34;100453.30;;;20.33;100.00
61697;BME280;47610;52.252;20.922;2023-09-18T00:20:37;100451.23;;;20.30;100.00
61697;BME280;47610;52.252;20.922;2023-09-18T00:25:40;100453.76;;;20.28;100.00
61697;BME280;47610;52.252;20.922;2023-09-18T00:30:49;100453.64;;;20.27;100.00
61697;BME280;47610;52.252;20.922;2023-09-18T00:35:53;100455.18;;;20.22;100.00
61697;BME280;47610;52.252;20.922;2023-09-18T00:40:56;100451.03;;;20.18;100.00
61697;BME280;47610;52.252;20.922;2023-09-18T00:45:59;100452.70;;;20.14;100.00
61697;BME280;47610;52.252;20.922;2023-09-18T00:51:03;100448.29;;;20.09;100.00
61697;BME280;47610;52.252;20.922;2023-09-18T00:56:06;100449.89;;;20.06;100.00
61697;BME280;47610;52.252;20.922;2023-09-18T01:01:09;100456.82;;;20.03;100.00
61697;BME280;47610;52.252;20.922;2023-09-18T01:06:13;100457.04;;;19.98;100.00
61697;BME280;47610;52.252;20.922;2023-09-18T01:11:22;100458.73;;;19.89;100.00
61697;BME280;47610;52.252;20.922;2023-09-18T01:16:32;100455.38;;;19.85;100.00
61697;BME280;47610;52.252;20.922;2023-09-18T01:21:37;100450.92;;;19.81;100.00
61697;BME280;47610;52.252;20.922;2023-09-18T01:26:40;100452.81;;;19.75;100.00
61697;BME280;47610;52.252;20.922;2023-09-18T01:31:43;100454.98;;;19.68;100.00
61697;BME280;47610;52.252;20.922;2023-09-18T01:36:47;100459.31;;;19.61;100.00
61697;BME280;47610;52.252;20.922;2023-09-18T01:41:51;100460.58;;;19.57;100.00
61697;BME280;47610;52.252;20.922;2023-09-18T01:46:55;100457.44;;;19.52;100.00
61697;BME280;47610;52.252;20.922;2023-09-18T01:51:59;100454.49;;;19.45;100.00
61697;BME280;47610;52.252;20.922;2023-09-18T01:57:03;100446.86;;;19.33;100.00
61697;BME280;47610;52.252;20.922;2023-09-18T02:02:05;100441.66;;;19.19;100.00
61697;BME280;47610;52.252;20.922;2023-09-18T02:07:08;100441.38;;;18.98;100.00
61697;BME280;47610;52.252;20.922;2023-09-18T02:12:11;100437.69;;;18.78;100.00
61697;BME280;47610;52.252;20.922;2023-09-18T02:17:15;100437.39;;;18.66;100.00
61697;BME280;47610;52.252;20.922;2023-09-18T02:22:18;100433.61;;;18.59;100.00
61697;BME280;47610;52.252;20.922;2023-09-18T02:27:21;100426.79;;;18.47;100.00
61697;BME280;47610;52.252;20.922;2023-09-18T02:32:24;100427.77;;;18.41;100.00
61697;BME280;47610;52.252;20.922;2023-09-18T02:37:27;100422.28;;;18.39;100.00
61697;BME280;47610;52.252;20.922;2023-09-18T02:42:30;100414.10;;;18.38;100.00
61697;BME280;47610;52.252;20.922;2023-09-18T02:47:33;100419.05;;;18.41;100.00
61697;BME280;47610;52.252;20.922;2023-09-18T02:52:36;100409.19;;;18.49;100.00
61697;BME280;47610;52.252;20.922;2023-09-18T02:57:39;100409.35;;;18.47;100.00
61697;BME280;47610;52.252;20.922;2023-09-18T03:02:42;100407.40;;;18.48;100.00
61697;BME280;47610;52.252;20.922;2023-09-18T03:07:45;100410.55;;;18.55;100.00
61697;BME280;47610;52.252;20.922;2023-09-18T03:12:50;100411.73;;;18.66;100.00
61697;BME280;47610;52.252;20.922;2023-09-18T03:17:53;100413.20;;;18.81;100.00
61697;BME280;47610;52.252;20.922;2023-09-18T03:22:58;100414.30;;;18.97;100.00
61697;BME280;47610;52.252;20.922;2023-09-18T03:28:02;100409.84;;;19.10;100.00
61697;BME280;47610;52.252;20.922;2023-09-18T03:33:05;100411.32;;;19.20;100.00
61697;BME280;47610;52.252;20.922;2023-09-18T03:38:08;100403.91;;;19.27;100.00
61697;BME280;47610;52.252;20.922;2023-09-18T03:43:12;100407.36;;;19.34;100.00
61697;BME280;47610;52.252;20.922;2023-09-18T03:48:15;100414.70;;;19.36;100.00
61697;BME280;47610;52.252;20.922;2023-09-18T03:53:18;100413.85;;;19.32;100.00
61697;BME280;47610;52.252;20.922;2023-09-18T03:58:21;100411.46;;;19.35;100.00
61697;BME280;47610;52.252;20.922;2023-09-18T04:03:24;100408.67;;;19.37;100.00
61697;BME280;47610;52.252;20.922;2023-09-18T04:08:27;100410.08;;;19.38;100.00
61697;BME280;47610;52.252;20.922;2023-09-18T04:13:30;100407.96;;;19.43;100.00
61697;BME280;47610;52.252;20.922;2023-09-18T04:18:33;100405.50;;;19.44;100.00
61697;BME280;47610;52.252;20.922;2023-09-18T04:23:37;100402.73;;;19.38;100.00
61697;BME280;47610;52.252;20.922;2023-09-18T04:28:40;100397.14;;;19.33;100.00
61697;BME280;47610;52.252;20.922;2023-09-18T04:33:43;100386.92;;;19.29;100.00
61697;BME280;47610;52.252;20.922;2023-09-18T04:38:46;100386.22;;;19.28;100.00
61697;BME280;47610;52.252;20.922;2023-09-18T04:43:49;100386.83;;;19.29;100.00
61697;BME280;47610;52.252;20.922;2023-09-18T04:48:55;100384.05;;;19.33;100.00
61697;BME280;47610;52.252;20.922;2023-09-18T04:53:58;100384.69;;;19.33;100.00
61697;BME280;47610;52.252;20.922;2023-09-18T04:59:02;100379.01;;;19.33;100.00
61697;BME280;47610;52.252;20.922;2023-09-18T05:04:05;100383.08;;;19.27;100.00
61697;BME280;47610;52.252;20.922;2023-09-18T05:09:08;100377.71;;;19.26;100.00
61697;BME280;47610;52.252;20.922;2023-09-18T05:14:11;100372.20;;;19.26;100.00
61697;BME280;47610;52.252;20.922;2023-09-18T05:19:15;100373.52;;;19.29;100.00
61697;BME280;47610;52.252;20.922;2023-09-18T05:24:18;100372.30;;;19.32;100.00
61697;BME280;47610;52.252;20.922;2023-09-18T05:29:21;100372.20;;;19.36;100.00
61697;BME280;47610;52.252;20.922;2023-09-18T05:34:24;100361.79;;;19.41;100.00
61697;BME280;47610;52.252;20.922;2023-09-18T05:39:27;100353.33;;;19.52;100.00
61697;BME280;47610;52.252;20.922;2023-09-18T05:44:30;100348.94;;;19.65;100.00
61697;BME280;47610;52.252;20.922;2023-09-18T05:49:33;100346.94;;;19.73;100.00
61697;BME280;47610;52.252;20.922;2023-09-18T05:54:36;100340.63;;;19.74;100.00
61697;BME280;47610;52.252;20.922;2023-09-18T05:59:39;100333.93;;;19.81;100.00
61697;BME280;47610;52.252;20.922;2023-09-18T06:04:42;100337.61;;;19.96;100.00
61697;BME280;47610;52.252;20.922;2023-09-18T06:09:45;100335.34;;;20.09;100.00
61697;BME280;47610;52.252;20.922;2023-09-18T06:14:49;100335.35;;;20.20;100.00
61697;BME280;47610;52.252;20.922;2023-09-18T06:19:52;100338.08;;;20.36;100.00
61697;BME280;47610;52.252;20.922;2023-09-18T06:24:55;100336.63;;;20.51;100.00
61697;BME280;47610;52.252;20.922;2023-09-18T06:29:58;100340.27;;;20.60;100.00
61697;BME280;47610;52.252;20.922;2023-09-18T06:35:01;100334.14;;;20.70;100.00
61697;BME280;47610;52.252;20.922;2023-09-18T06:40:06;100337.46;;;20.80;100.00
61697;BME280;47610;52.252;20.922;2023-09-18T06:45:10;100335.08;;;20.94;100.00
61697;BME280;47610;52.252;20.922;2023-09-18T06:50:13;100331.06;;;21.05;100.00
61697;BME280;47610;52.252;20.922;2023-09-18T06:55:16;100329.24;;;21.22;100.00
61697;BME280;47610;52.252;20.922;2023-09-18T07:00:20;100326.11;;;21.39;100.00
61697;BME280;47610;52.252;20.922;2023-09-18T07:05:23;100328.34;;;21.45;100.00
61697;BME280;47610;52.252;20.922;2023-09-18T07:10:26;100324.06;;;21.59;100.00
61697;BME280;47610;52.252;20.922;2023-09-18T07:15:29;100327.42;;;21.85;100.00
61697;BME280;47610;52.252;20.922;2023-09-18T07:20:32;100335.45;;;22.09;100.00
61697;BME280;47610;52.252;20.922;2023-09-18T07:25:35;100332.73;;;22.23;100.00
61697;BME280;47610;52.252;20.922;2023-09-18T07:30:39;100333.88;;;22.34;100.00
61697;BME280;47610;52.252;20.922;2023-09-18T07:35:42;100327.05;;;22.42;100.00
61697;BME280;47610;52.252;20.922;2023-09-18T07:40:47;100326.61;;;22.55;100.00
61697;BME280;47610;52.252;20.922;2023-09-18T07:45:50;100323.52;;;22.67;100.00
61697;BME280;47610;52.252;20.922;2023-09-18T07:50:54;100319.94;;;22.80;100.00
61697;BME280;47610;52.252;20.922;2023-09-18T07:56:00;100323.02;;;22.96;100.00
61697;BME280;47610;52.252;20.922;2023-09-18T08:01:03;100320.82;;;23.10;100.00
61697;BME280;47610;52.252;20.922;2023-09-18T08:06:07;100323.71;;;23.26;100.00
61697;BME280;47610;52.252;20.922;2023-09-18T08:11:10;100316.27;;;23.40;100.00
61697;BME280;47610;52.252;20.922;2023-09-18T08:16:13;100310.06;;;23.52;100.00
61697;BME280;47610;52.252;20.922;2023-09-18T08:21:16;100301.50;;;23.67;100.00
61697;BME280;47610;52.252;20.922;2023-09-18T08:26:19;100296.85;;;23.80;100.00
61697;BME280;47610;52.252;20.922;2023-09-18T08:31:22;100303.89;;;23.90;100.00
61697;BME280;47610;52.252;20.922;2023-09-18T08:36:25;100304.58;;;24.04;100.00
61697;BME280;47610;52.252;20.922;2023-09-18T08:41:30;100301.72;;;24.21;100.00
61697;BME280;47610;52.252;20.922;2023-09-18T08:46:35;100294.95;;;24.43;100.00
61697;BME280;47610;52.252;20.922;2023-09-18T08:51:39;100292.89;;;24.69;100.00
61697;BME280;47610;52.252;20.922;2023-09-18T08:56:42;100285.45;;;25.03;100.00
61697;BME280;47610;52.252;20.922;2023-09-18T09:01:45;100282.08;;;25.58;100.00
61697;BME280;47610;52.252;20.922;2023-09-18T09:06:49;100279.04;;;26.45;100.00
61697;BME280;47610;52.252;20.922;2023-09-18T09:11:52;100279.47;;;27.53;100.00
61697;BME280;47610;52.252;20.922;2023-09-18T09:16:56;100279.18;;;28.29;100.00
61697;BME280;47610;52.252;20.922;2023-09-18T09:22:00;100276.64;;;28.78;99.75
61697;BME280;47610;52.252;20.922;2023-09-18T09:27:04;100277.51;;;29.25;96.49
61697;BME280;47610;52.252;20.922;2023-09-18T09:32:17;100272.95;;;29.42;88.22
61697;BME280;47610;52.252;20.922;2023-09-18T09:37:21;100267.67;;;29.51;89.19
61697;BME280;47610;52.252;20.922;2023-09-18T09:42:39;100256.44;;;29.36;88.26
61697;BME280;47610;52.252;20.922;2023-09-18T09:47:43;100253.69;;;29.19;86.01
61697;BME280;47610;52.252;20.922;2023-09-18T09:52:48;100248.41;;;28.99;84.84
61697;BME280;47610;52.252;20.922;2023-09-18T09:57:53;100243.31;;;28.78;87.02
61697;BME280;47610;52.252;20.922;2023-09-18T10:02:59;100237.73;;;28.47;81.36
61697;BME280;47610;52.252;20.922;2023-09-18T10:08:06;100228.73;;;28.07;79.22
61697;BME280;47610;52.252;20.922;2023-09-18T10:13:17;100225.97;;;27.73;82.56
61697;BME280;47610;52.252;20.922;2023-09-18T10:18:27;100221.70;;;27.47;83.66
61697;BME280;47610;52.252;20.922;2023-09-18T10:23:37;100214.30;;;27.38;85.80
61697;BME280;47610;52.252;20.922;2023-09-18T10:28:41;100205.75;;;27.39;87.53
61697;BME280;47610;52.252;20.922;2023-09-18T10:33:46;100206.13;;;27.35;86.23
61697;BME280;47610;52.252;20.922;2023-09-18T10:38:50;100199.23;;;27.32;86.41
61697;BME280;47610;52.252;20.922;2023-09-18T10:43:54;100191.69;;;27.68;84.52
61697;BME280;47610;52.252;20.922;2023-09-18T10:48:59;100188.45;;;28.36;80.94
61697;BME280;47610;52.252;20.922;2023-09-18T10:54:03;100184.30;;;28.90;76.18
61697;BME280;47610;52.252;20.922;2023-09-18T10:59:07;100180.05;;;29.32;74.56
61697;BME280;47610;52.252;20.922;2023-09-18T11:04:11;100178.98;;;29.91;71.59
61697;BME280;47610;52.252;20.922;2023-09-18T11:09:21;100173.56;;;30.18;68.16
61697;BME280;47610;52.252;20.922;2023-09-18T11:14:29;100161.55;;;30.05;64.89
61697;BME280;47610;52.252;20.922;2023-09-18T11:19:45;100150.91;;;29.95;65.96
61697;BME280;47610;52.252;20.922;2023-09-18T11:24:49;100153.97;;;29.84;63.77
61697;BME280;47610;52.252;20.922;2023-09-18T11:29:55;100145.23;;;29.81;63.33
61697;BME280;47610;52.252;20.922;2023-09-18T11:35:08;100145.33;;;29.92;61.17
61697;BME280;47610;52.252;20.922;2023-09-18T11:45:27;100137.31;;;29.92;60.23
61697;BME280;47610;52.252;20.922;2023-09-18T11:50:31;100135.52;;;29.93;61.37
61697;BME280;47610;52.252;20.922;2023-09-18T11:55:34;100129.09;;;29.82;59.55
61697;BME280;47610;52.252;20.922;2023-09-18T12:00:37;100128.98;;;29.70;59.83
61697;BME280;47610;52.252;20.922;2023-09-18T12:05:42;100126.48;;;29.63;61.23
61697;BME280;47610;52.252;20.922;2023-09-18T12:10:49;100120.48;;;29.73;58.93
61697;BME280;47610;52.252;20.922;2023-09-18T12:15:58;100115.25;;;29.79;55.79
61697;BME280;47610;52.252;20.922;2023-09-18T12:21:02;100117.38;;;30.04;54.72
61697;BME280;47610;52.252;20.922;2023-09-18T12:26:06;100112.30;;;30.20;53.49
61697;BME280;47610;52.252;20.922;2023-09-18T12:31:12;100107.33;;;30.14;52.27
61697;BME280;47610;52.252;20.922;2023-09-18T12:36:20;100099.61;;;30.05;53.91
61697;BME280;47610;52.252;20.922;2023-09-18T12:41:23;100087.48;;;30.00;55.21
61697;BME280;47610;52.252;20.922;2023-09-18T12:46:28;100088.02;;;30.03;55.08
61697;BME280;47610;52.252;20.922;2023-09-18T12:51:32;100090.52;;;29.81;54.88
61697;BME280;47610;52.252;20.922;2023-09-18T12:56:41;100076.77;;;29.56;56.92
61697;BME280;47610;52.252;20.922;2023-09-18T13:01:47;100069.81;;;29.36;56.26
61697;BME280;47610;52.252;20.922;2023-09-18T13:07:04;100055.61;;;29.20;58.63
61697;BME280;47610;52.252;20.922;2023-09-18T13:12:09;100048.13;;;29.04;61.62
61697;BME280;47610;52.252;20.922;2023-09-18T13:17:12;100050.93;;;28.78;63.09
61697;BME280;47610;52.252;20.922;2023-09-18T13:22:24;100040.87;;;28.45;66.00
61697;BME280;47610;52.252;20.922;2023-09-18T13:27:28;100024.85;;;28.23;68.22
61697;BME280;47610;52.252;20.922;2023-09-18T13:32:31;100016.36;;;28.16;67.54
61697;BME280;47610;52.252;20.922;2023-09-18T13:37:34;100012.81;;;28.14;67.01
61697;BME280;47610;52.252;20.922;2023-09-18T13:42:38;100009.41;;;28.10;68.34
61697;BME280;47610;52.252;20.922;2023-09-18T13:47:39;99999.48;;;28.02;66.89
61697;BME280;47610;52.252;20.922;2023-09-18T13:52:43;99991.63;;;27.90;65.54
61697;BME280;47610;52.252;20.922;2023-09-18T13:57:46;99984.89;;;27.80;67.50
61697;BME280;47610;52.252;20.922;2023-09-18T14:02:50;99975.74;;;27.76;68.70
61697;BME280;47610;52.252;20.922;2023-09-18T14:07:53;99972.69;;;27.79;70.61
61697;BME280;47610;52.252;20.922;2023-09-18T14:12:56;99970.09;;;27.80;71.37
61697;BME280;47610;52.252;20.922;2023-09-18T14:17:59;99963.71;;;27.78;70.19
61697;BME280;47610;52.252;20.922;2023-09-18T14:23:02;99956.92;;;27.78;68.63
61697;BME280;47610;52.252;20.922;2023-09-18T14:28:06;99953.52;;;27.70;67.87
61697;BME280;47610;52.252;20.922;2023-09-18T14:33:09;99951.96;;;27.56;67.86
61697;BME280;47610;52.252;20.922;2023-09-18T14:38:12;99944.95;;;27.49;69.26
61697;BME280;47610;52.252;20.922;2023-09-18T14:43:15;99942.44;;;27.49;70.81
61697;BME280;47610;52.252;20.922;2023-09-18T14:48:18;99935.98;;;27.46;71.36
61697;BME280;47610;52.252;20.922;2023-09-18T14:53:21;99934.36;;;27.43;70.02
61697;BME280;47610;52.252;20.922;2023-09-18T14:58:24;99932.97;;;27.35;69.82
61697;BME280;47610;52.252;20.922;2023-09-18T15:03:28;99924.79;;;27.25;70.29
61697;BME280;47610;52.252;20.922;2023-09-18T15:08:31;99923.56;;;27.19;72.20
61697;BME280;47610;52.252;20.922;2023-09-18T15:13:35;99927.38;;;27.26;73.20
61697;BME280;47610;52.252;20.922;2023-09-18T15:18:38;99923.85;;;27.44;73.06
61697;BME280;47610;52.252;20.922;2023-09-18T15:23:41;99924.84;;;27.50;72.34
61697;BME280;47610;52.252;20.922;2023-09-18T15:28:44;99917.48;;;27.52;71.70
61697;BME280;47610;52.252;20.922;2023-09-18T15:33:47;99913.13;;;27.48;71.84
61697;BME280;47610;52.252;20.922;2023-09-18T15:38:50;99907.95;;;27.48;72.42
61697;BME280;47610;52.252;20.922;2023-09-18T15:43:53;99908.43;;;27.54;72.87
61697;BME280;47610;52.252;20.922;2023-09-18T15:48:55;99904.49;;;27.64;72.83
61697;BME280;47610;52.252;20.922;2023-09-18T15:53:58;99903.93;;;27.78;72.38
61697;BME280;47610;52.252;20.922;2023-09-18T15:59:02;99900.62;;;27.82;72.32
61697;BME280;47610;52.252;20.922;2023-09-18T16:04:05;99900.94;;;27.81;72.90
61697;BME280;47610;52.252;20.922;2023-09-18T16:09:08;99894.71;;;27.68;73.90
61697;BME280;47610;52.252;20.922;2023-09-18T16:14:12;99899.38;;;27.42;75.33
61697;BME280;47610;52.252;20.922;2023-09-18T16:19:15;99884.88;;;27.16;77.00
61697;BME280;47610;52.252;20.922;2023-09-18T16:24:18;99880.05;;;26.94;78.43
61697;BME280;47610;52.252;20.922;2023-09-18T16:29:24;99877.17;;;26.75;80.17
61697;BME280;47610;52.252;20.922;2023-09-18T16:34:27;99874.01;;;26.53;81.59
61697;BME280;47610;52.252;20.922;2023-09-18T16:39:30;99874.23;;;26.40;83.00
61697;BME280;47610;52.252;20.922;2023-09-18T16:44:33;99864.59;;;26.26;83.99
61697;BME280;47610;52.252;20.922;2023-09-18T16:49:36;99864.40;;;26.09;85.37
61697;BME280;47610;52.252;20.922;2023-09-18T16:54:39;99853.33;;;25.92;86.89
61697;BME280;47610;52.252;20.922;2023-09-18T16:59:43;99854.13;;;25.82;88.12
61697;BME280;47610;52.252;20.922;2023-09-18T17:04:46;99847.20;;;25.72;89.11
61697;BME280;47610;52.252;20.922;2023-09-18T17:09:49;99844.09;;;25.65;90.27
61697;BME280;47610;52.252;20.922;2023-09-18T17:14:52;99843.14;;;25.57;91.32
61697;BME280;47610;52.252;20.922;2023-09-18T17:19:54;99839.86;;;25.50;92.13
61697;BME280;47610;52.252;20.922;2023-09-18T17:24:57;99843.10;;;25.41;92.86
61697;BME280;47610;52.252;20.922;2023-09-18T17:30:01;99837.70;;;25.32;94.24
61697;BME280;47610;52.252;20.922;2023-09-18T17:35:06;99840.13;;;25.25;95.28
61697;BME280;47610;52.252;20.922;2023-09-18T17:40:10;99837.54;;;25.22;95.98
61697;BME280;47610;52.252;20.922;2023-09-18T17:45:13;99843.39;;;25.13;96.48
61697;BME280;47610;52.252;20.922;2023-09-18T17:50:17;99842.46;;;25.02;97.40
61697;BME280;47610;52.252;20.922;2023-09-18T17:55:23;99844.88;;;24.94;98.25
61697;BME280;47610;52.252;20.922;2023-09-18T18:00:26;99842.83;;;24.83;99.31
61697;BME280;47610;52.252;20.922;2023-09-18T18:05:29;99840.98;;;24.76;99.98
61697;BME280;47610;52.252;20.922;2023-09-18T18:10:32;99840.96;;;24.67;100.00
61697;BME280;47610;52.252;20.922;2023-09-18T18:15:37;99841.30;;;24.61;100.00
61697;BME280;47610;52.252;20.922;2023-09-18T18:20:44;99840.02;;;24.56;100.00
61697;BME280;47610;52.252;20.922;2023-09-18T18:25:49;99837.23;;;24.45;100.00
61697;BME280;47610;52.252;20.922;2023-09-18T18:30:52;99839.39;;;24.40;100.00
61697;BME280;47610;52.252;20.922;2023-09-18T18:35:56;99832.38;;;24.32;100.00
61697;BME280;47610;52.252;20.922;2023-09-18T18:41:00;99831.92;;;24.27;100.00
61697;BME280;47610;52.252;20.922;2023-09-18T18:46:04;99832.30;;;24.25;100.00
61697;BME280;47610;52.252;20.922;2023-09-18T18:51:10;99828.67;;;24.19;100.00
61697;BME280;47610;52.252;20.922;2023-09-18T18:56:13;99818.98;;;24.09;100.00
61697;BME280;47610;52.252;20.922;2023-09-18T19:01:17;99816.27;;;23.99;100.00
61697;BME280;47610;52.252;20.922;2023-09-18T19:06:21;99820.63;;;23.94;100.00
61697;BME280;47610;52.252;20.922;2023-09-18T19:11:24;99817.58;;;23.89;100.00
61697;BME280;47610;52.252;20.922;2023-09-18T19:16:27;99818.77;;;23.87;100.00
61697;BME280;47610;52.252;20.922;2023-09-18T19:21:30;99817.09;;;23.83;100.00
61697;BME280;47610;52.252;20.922;2023-09-18T19:26:33;99817.61;;;23.71;100.00
61697;BME280;47610;52.252;20.922;2023-09-18T19:31:37;99815.73;;;23.59;100.00
61697;BME280;47610;52.252;20.922;2023-09-18T19:36:41;99806.38;;;23.46;100.00
61697;BME280;47610;52.252;20.922;2023-09-18T19:41:44;99801.86;;;23.34;100.00
61697;BME280;47610;52.252;20.922;2023-09-18T19:46:47;99794.91;;;23.26;100.00
61697;BME280;47610;52.252;20.922;2023-09-18T19:51:50;99787.32;;;23.18;100.00
61697;BME280;47610;52.252;20.922;2023-09-18T19:56:55;99780.98;;;23.13;100.00
61697;BME280;47610;52.252;20.922;2023-09-18T20:01:59;99775.95;;;23.09;100.00
61697;BME280;47610;52.252;20.922;2023-09-18T20:07:03;99772.87;;;23.08;100.00
61697;BME280;47610;52.252;20.922;2023-09-18T20:12:07;99769.24;;;23.03;100.00
61697;BME280;47610;52.252;20.922;2023-09-18T20:17:10;99765.84;;;22.92;100.00
61697;BME280;47610;52.252;20.922;2023-09-18T20:22:13;99762.92;;;22.91;100.00
61697;BME280;47610;52.252;20.922;2023-09-18T20:27:17;99757.88;;;22.87;100.00
61697;BME280;47610;52.252;20.922;2023-09-18T20:32:20;99756.34;;;22.77;100.00
61697;BME280;47610;52.252;20.922;2023-09-18T20:37:23;99756.09;;;22.63;100.00
61697;BME280;47610;52.252;20.922;2023-09-18T20:42:27;99756.52;;;22.52;100.00
61697;BME280;47610;52.252;20.922;2023-09-18T20:47:30;99760.02;;;22.50;100.00
61697;BME280;47610;52.252;20.922;2023-09-18T20:52:33;99747.45;;;22.51;100.00
61697;BME280;47610;52.252;20.922;2023-09-18T20:57:36;99745.35;;;22.51;100.00
61697;BME280;47610;52.252;20.922;2023-09-18T21:02:39;99740.23;;;22.46;100.00
61697;BME280;47610;52.252;20.922;2023-09-18T21:07:43;99744.14;;;22.37;100.00
61697;BME280;47610;52.252;20.922;2023-09-18T21:12:46;99737.77;;;22.27;100.00
61697;BME280;47610;52.252;20.922;2023-09-18T21:17:49;99741.83;;;22.22;100.00
61697;BME280;47610;52.252;20.922;2023-09-18T21:22:52;99730.48;;;22.19;100.00
61697;BME280;47610;52.252;20.922;2023-09-18T21:27:55;99730.15;;;22.12;100.00
61697;BME280;47610;52.252;20.922;2023-09-18T21:32:58;99724.64;;;22.05;100.00
61697;BME280;47610;52.252;20.922;2023-09-18T21:38:02;99726.79;;;21.96;100.00
61697;BME280;47610;52.252;20.922;2023-09-18T21:43:05;99722.84;;;21.90;100.00
61697;BME280;47610;52.252;20.922;2023-09-18T21:48:08;99724.58;;;21.82;100.00
61697;BME280;47610;52.252;20.922;2023-09-18T21:53:12;99723.27;;;21.74;100.00
61697;BME280;47610;52.252;20.922;2023-09-18T21:58:15;99719.66;;;21.66;100.00
61697;BME280;47610;52.252;20.922;2023-09-18T22:03:18;99712.04;;;21.57;100.00
61697;BME280;47610;52.252;20.922;2023-09-18T22:08:21;99710.45;;;21.51;100.00
61697;BME280;47610;52.252;20.922;2023-09-18T22:13:24;99709.55;;;21.46;100.00
61697;BME280;47610;52.252;20.922;2023-09-18T22:18:27;99702.02;;;21.39;100.00
61697;BME280;47610;52.252;20.922;2023-09-18T22:23:30;99692.95;;;21.32;100.00
61697;BME280;47610;52.252;20.922;2023-09-18T22:28:33;99687.95;;;21.33;100.00
61697;BME280;47610;52.252;20.922;2023-09-18T22:33:36;99687.81;;;21.34;100.00
61697;BME280;47610;52.252;20.922;2023-09-18T22:38:46;99686.73;;;21.29;100.00
61697;BME280;47610;52.252;20.922;2023-09-18T22:54:52;99659.56;;;21.02;100.00
61697;BME280;47610;52.252;20.922;2023-09-18T22:59:57;99662.64;;;20.94;100.00
61697;BME280;47610;52.252;20.922;2023-09-18T23:05:00;99657.84;;;20.87;100.00
61697;BME280;47610;52.252;20.922;2023-09-18T23:10:04;99653.48;;;20.75;100.00
61697;BME280;47610;52.252;20.922;2023-09-18T23:15:10;99644.27;;;20.65;100.00
61697;BME280;47610;52.252;20.922;2023-09-18T23:20:14;99641.94;;;20.55;100.00
61697;BME280;47610;52.252;20.922;2023-09-18T23:25:18;99634.38;;;20.50;100.00
61697;BME280;47610;52.252;20.922;2023-09-18T23:30:21;99627.90;;;20.44;100.00
61697;BME280;47610;52.252;20.922;2023-09-18T23:35:24;99625.13;;;20.36;100.00
61697;BME280;47610;52.252;20.922;2023-09-18T23:40:28;99616.12;;;20.29;100.00
61697;BME280;47610;52.252;20.922;2023-09-18T23:45:33;99608.02;;;20.26;100.00
61697;BME280;47610;52.252;20.922;2023-09-18T23:50:36;99601.73;;;20.20;100.00
61697;BME280;47610;52.252;20.922;2023-09-18T23:55:39;99602.90;;;20.16;100.00
